sensor_id;sensor_type;location;lat;lon;timestamp;P1;durP1;ratioP1;P2;durP2;ratioP2
1296;SDS011;641;48.492;9.184;2022-09-24T00:01:58;13.80;;;6.70;;
1296;SDS011;641;48.492;9.184;2022-09-24T00:04:24;14.27;;;7.27;;
1296;SDS011;641;48.492;9.184;2022-09-24T00:06:51;12.27;;;6.30;;
1296;SDS011;641;48.492;9.184;2022-09-24T00:09:18;13.10;;;6.60;;
1296;SDS011;641;48.492;9.184;2022-09-24T00:11:46;13.07;;;7.30;;
1296;SDS011;641;48.492;9.184;2022-09-24T00:14:13;13.10;;;6.60;;
1296;SDS011;641;48.492;9.184;2022-09-24T00:16:41;12.20;;;6.77;;
1296;SDS011;641;48.492;9.184;2022-09-24T00:19:08;12.40;;;7.07;;
1296;SDS011;641;48.492;9.184;2022-09-24T00:21:34;14.00;;;6.43;;
1296;SDS011;641;48.492;9.184;2022-09-24T00:24:06;11.27;;;6.40;;
1296;SDS011;641;48.492;9.184;2022-09-24T00:26:33;11.70;;;6.60;;
1296;SDS011;641;48.492;9.184;2022-09-24T00:29:19;12.90;;;7.03;;
1296;SDS011;641;48.492;9.184;2022-09-24T00:31:47;11.07;;;6.70;;
1296;SDS011;641;48.492;9.184;2022-09-24T00:34:13;15.10;;;7.23;;
1296;SDS011;641;48.492;9.184;2022-09-24T00:36:39;13.40;;;7.07;;
1296;SDS011;641;48.492;9.184;2022-09-24T00:39:05;11.23;;;6.50;;
1296;SDS011;641;48.492;9.184;2022-09-24T00:41:32;11.27;;;6.20;;
1296;SDS011;641;48.492;9.184;2022-09-24T00:44:00;12.83;;;6.87;;
1296;SDS011;641;48.492;9.184;2022-09-24T00:46:46;12.20;;;6.77;;
1296;SDS011;641;48.492;9.184;2022-09-24T00:49:13;12.10;;;6.63;;
1296;SDS011;641;48.492;9.184;2022-09-24T00:51:41;14.30;;;7.47;;
1296;SDS011;641;48.492;9.184;2022-09-24T00:54:10;13.30;;;7.20;;
1296;SDS011;641;48.492;9.184;2022-09-24T00:56:40;12.77;;;8.20;;
1296;SDS011;641;48.492;9.184;2022-09-24T00:59:08;15.97;;;8.80;;
1296;SDS011;641;48.492;9.184;2022-09-24T01:01:41;11.80;;;7.87;;
1296;SDS011;641;48.492;9.184;2022-09-24T01:04:08;15.13;;;7.90;;
1296;SDS011;641;48.492;9.184;2022-09-24T01:06:35;12.80;;;7.80;;
1296;SDS011;641;48.492;9.184;2022-09-24T01:09:01;12.10;;;7.87;;
1296;SDS011;641;48.492;9.184;2022-09-24T01:14:24;13.23;;;7.47;;
1296;SDS011;641;48.492;9.184;2022-09-24T01:25:18;14.20;;;6.00;;
1296;SDS011;641;48.492;9.184;2022-09-24T01:31:03;12.90;;;6.47;;
1296;SDS011;641;48.492;9.184;2022-09-24T01:33:34;11.20;;;6.50;;
1296;SDS011;641;48.492;9.184;2022-09-24T01:36:01;15.73;;;6.50;;
1296;SDS011;641;48.492;9.184;2022-09-24T01:38:32;11.10;;;5.87;;
1296;SDS011;641;48.492;9.184;2022-09-24T01:41:02;12.50;;;6.13;;
1296;SDS011;641;48.492;9.184;2022-09-24T01:43:31;11.03;;;6.10;;
1296;SDS011;641;48.492;9.184;2022-09-24T01:45:57;12.53;;;5.90;;
1296;SDS011;641;48.492;9.184;2022-09-24T01:48:26;9.43;;;5.13;;
1296;SDS011;641;48.492;9.184;2022-09-24T01:51:17;12.23;;;6.20;;
1296;SDS011;641;48.492;9.184;2022-09-24T01:56:19;14.93;;;8.87;;
1296;SDS011;641;48.492;9.184;2022-09-24T01:59:11;14.57;;;9.17;;
1296;SDS011;641;48.492;9.184;2022-09-24T02:01:47;27.23;;;9.03;;
1296;SDS011;641;48.492;9.184;2022-09-24T02:04:24;13.70;;;6.80;;
1296;SDS011;641;48.492;9.184;2022-09-24T02:06:53;13.33;;;6.83;;
1296;SDS011;641;48.492;9.184;2022-09-24T02:09:30;14.10;;;8.80;;
1296;SDS011;641;48.492;9.184;2022-09-24T02:11:57;15.30;;;7.87;;
1296;SDS011;641;48.492;9.184;2022-09-24T02:14:56;18.43;;;8.37;;
1296;SDS011;641;48.492;9.184;2022-09-24T02:17:26;13.60;;;7.27;;
1296;SDS011;641;48.492;9.184;2022-09-24T02:19:56;14.20;;;7.53;;
1296;SDS011;641;48.492;9.184;2022-09-24T02:22:25;12.27;;;7.37;;
1296;SDS011;641;48.492;9.184;2022-09-24T02:24:52;13.40;;;7.67;;
1296;SDS011;641;48.492;9.184;2022-09-24T02:27:21;14.20;;;8.03;;
1296;SDS011;641;48.492;9.184;2022-09-24T02:29:53;13.93;;;8.37;;
1296;SDS011;641;48.492;9.184;2022-09-24T02:32:23;12.40;;;7.67;;
1296;SDS011;641;48.492;9.184;2022-09-24T02:34:52;19.50;;;8.23;;
1296;SDS011;641;48.492;9.184;2022-09-24T02:37:22;13.50;;;7.77;;
1296;SDS011;641;48.492;9.184;2022-09-24T02:39:49;15.23;;;8.50;;
1296;SDS011;641;48.492;9.184;2022-09-24T02:42:15;12.30;;;7.00;;
1296;SDS011;641;48.492;9.184;2022-09-24T02:44:41;14.07;;;8.30;;
1296;SDS011;641;48.492;9.184;2022-09-24T02:47:07;13.90;;;7.80;;
1296;SDS011;641;48.492;9.184;2022-09-24T02:49:33;14.00;;;7.87;;
1296;SDS011;641;48.492;9.184;2022-09-24T02:51:59;13.47;;;7.53;;
1296;SDS011;641;48.492;9.184;2022-09-24T02:54:25;16.53;;;7.43;;
1296;SDS011;641;48.492;9.184;2022-09-24T02:56:50;12.90;;;7.53;;
1296;SDS011;641;48.492;9.184;2022-09-24T02:59:17;13.77;;;7.70;;
1296;SDS011;641;48.492;9.184;2022-09-24T03:01:43;12.50;;;7.13;;
1296;SDS011;641;48.492;9.184;2022-09-24T03:04:09;13.20;;;7.70;;
1296;SDS011;641;48.492;9.184;2022-09-24T03:06:35;14.60;;;8.13;;
1296;SDS011;641;48.492;9.184;2022-09-24T03:09:01;13.53;;;8.10;;
1296;SDS011;641;48.492;9.184;2022-09-24T03:11:27;14.67;;;6.97;;
1296;SDS011;641;48.492;9.184;2022-09-24T03:13:53;13.43;;;7.20;;
1296;SDS011;641;48.492;9.184;2022-09-24T03:16:19;12.57;;;7.33;;
1296;SDS011;641;48.492;9.184;2022-09-24T03:18:45;13.80;;;7.60;;
1296;SDS011;641;48.492;9.184;2022-09-24T03:21:12;14.53;;;7.53;;
1296;SDS011;641;48.492;9.184;2022-09-24T03:23:40;11.77;;;6.93;;
1296;SDS011;641;48.492;9.184;2022-09-24T03:26:06;14.00;;;8.50;;
1296;SDS011;641;48.492;9.184;2022-09-24T03:28:32;14.90;;;8.10;;
1296;SDS011;641;48.492;9.184;2022-09-24T03:30:57;18.13;;;8.50;;
1296;SDS011;641;48.492;9.184;2022-09-24T03:38:39;15.50;;;7.70;;
1296;SDS011;641;48.492;9.184;2022-09-24T03:41:06;11.70;;;6.57;;
1296;SDS011;641;48.492;9.184;2022-09-24T03:43:33;14.97;;;8.33;;
1296;SDS011;641;48.492;9.184;2022-09-24T03:45:59;12.43;;;7.10;;
1296;SDS011;641;48.492;9.184;2022-09-24T03:48:25;13.00;;;7.93;;
1296;SDS011;641;48.492;9.184;2022-09-24T03:50:51;15.60;;;8.90;;
1296;SDS011;641;48.492;9.184;2022-09-24T03:53:17;14.77;;;7.80;;
1296;SDS011;641;48.492;9.184;2022-09-24T03:56:02;13.10;;;7.50;;
1296;SDS011;641;48.492;9.184;2022-09-24T03:58:30;13.13;;;7.70;;
1296;SDS011;641;48.492;9.184;2022-09-24T04:00:56;17.60;;;8.40;;
1296;SDS011;641;48.492;9.184;2022-09-24T04:03:22;14.20;;;7.40;;
1296;SDS011;641;48.492;9.184;2022-09-24T04:05:48;17.43;;;8.90;;
1296;SDS011;641;48.492;9.184;2022-09-24T04:08:18;14.90;;;8.80;;
1296;SDS011;641;48.492;9.184;2022-09-24T04:10:44;14.43;;;7.83;;
1296;SDS011;641;48.492;9.184;2022-09-24T04:13:11;12.20;;;7.37;;
1296;SDS011;641;48.492;9.184;2022-09-24T04:15:37;17.20;;;8.30;;
1296;SDS011;641;48.492;9.184;2022-09-24T04:18:03;17.57;;;8.10;;
1296;SDS011;641;48.492;9.184;2022-09-24T04:20:28;13.67;;;7.97;;
1296;SDS011;641;48.492;9.184;2022-09-24T04:22:56;13.53;;;7.47;;
1296;SDS011;641;48.492;9.184;2022-09-24T04:25:22;11.93;;;7.50;;
1296;SDS011;641;48.492;9.184;2022-09-24T04:27:53;16.03;;;8.67;;
1296;SDS011;641;48.492;9.184;2022-09-24T04:30:20;13.43;;;7.53;;
1296;SDS011;641;48.492;9.184;2022-09-24T04:32:47;12.50;;;7.80;;
1296;SDS011;641;48.492;9.184;2022-09-24T04:35:15;12.07;;;6.87;;
1296;SDS011;641;48.492;9.184;2022-09-24T04:37:41;18.40;;;8.73;;
1296;SDS011;641;48.492;9.184;2022-09-24T04:40:07;14.43;;;7.53;;
1296;SDS011;641;48.492;9.184;2022-09-24T04:42:36;11.80;;;7.20;;
1296;SDS011;641;48.492;9.184;2022-09-24T04:45:02;12.30;;;7.63;;
1296;SDS011;641;48.492;9.184;2022-09-24T04:47:29;13.60;;;7.80;;
1296;SDS011;641;48.492;9.184;2022-09-24T04:49:55;13.40;;;7.63;;
1296;SDS011;641;48.492;9.184;2022-09-24T04:52:20;15.30;;;8.07;;
1296;SDS011;641;48.492;9.184;2022-09-24T04:54:49;14.93;;;7.73;;
1296;SDS011;641;48.492;9.184;2022-09-24T04:57:15;13.17;;;7.67;;
1296;SDS011;641;48.492;9.184;2022-09-24T04:59:41;14.40;;;7.17;;
1296;SDS011;641;48.492;9.184;2022-09-24T05:02:08;13.77;;;6.73;;
1296;SDS011;641;48.492;9.184;2022-09-24T05:04:34;13.70;;;6.80;;
1296;SDS011;641;48.492;9.184;2022-09-24T05:07:00;16.47;;;7.30;;
1296;SDS011;641;48.492;9.184;2022-09-24T05:09:25;13.20;;;7.10;;
1296;SDS011;641;48.492;9.184;2022-09-24T05:11:52;13.97;;;7.40;;
1296;SDS011;641;48.492;9.184;2022-09-24T05:14:17;17.97;;;7.57;;
1296;SDS011;641;48.492;9.184;2022-09-24T05:16:43;13.17;;;6.90;;
1296;SDS011;641;48.492;9.184;2022-09-24T05:19:08;11.90;;;6.70;;
1296;SDS011;641;48.492;9.184;2022-09-24T05:21:34;13.67;;;6.63;;
1296;SDS011;641;48.492;9.184;2022-09-24T05:24:00;14.13;;;7.10;;
1296;SDS011;641;48.492;9.184;2022-09-24T05:26:25;11.00;;;5.93;;
1296;SDS011;641;48.492;9.184;2022-09-24T05:29:09;13.40;;;6.70;;
1296;SDS011;641;48.492;9.184;2022-09-24T05:31:35;12.20;;;7.00;;
1296;SDS011;641;48.492;9.184;2022-09-24T05:34:00;15.27;;;7.03;;
1296;SDS011;641;48.492;9.184;2022-09-24T05:36:27;15.70;;;6.63;;
1296;SDS011;641;48.492;9.184;2022-09-24T05:38:53;13.83;;;7.10;;
1296;SDS011;641;48.492;9.184;2022-09-24T05:41:19;12.13;;;6.60;;
1296;SDS011;641;48.492;9.184;2022-09-24T05:43:44;9.97;;;5.87;;
1296;SDS011;641;48.492;9.184;2022-09-24T05:46:10;11.33;;;5.90;;
1296;SDS011;641;48.492;9.184;2022-09-24T05:48:37;10.73;;;6.03;;
1296;SDS011;641;48.492;9.184;2022-09-24T05:51:02;12.23;;;7.37;;
1296;SDS011;641;48.492;9.184;2022-09-24T05:53:29;11.77;;;6.97;;
1296;SDS011;641;48.492;9.184;2022-09-24T05:55:55;14.20;;;6.87;;
1296;SDS011;641;48.492;9.184;2022-09-24T05:58:22;12.67;;;6.70;;
1296;SDS011;641;48.492;9.184;2022-09-24T06:00:48;13.97;;;6.37;;
1296;SDS011;641;48.492;9.184;2022-09-24T06:03:15;10.50;;;6.47;;
1296;SDS011;641;48.492;9.184;2022-09-24T06:05:42;13.40;;;6.90;;
1296;SDS011;641;48.492;9.184;2022-09-24T06:08:10;21.60;;;8.23;;
1296;SDS011;641;48.492;9.184;2022-09-24T06:10:36;11.83;;;6.70;;
1296;SDS011;641;48.492;9.184;2022-09-24T06:13:02;15.53;;;6.80;;
1296;SDS011;641;48.492;9.184;2022-09-24T06:15:28;11.87;;;6.60;;
1296;SDS011;641;48.492;9.184;2022-09-24T06:17:55;13.43;;;6.63;;
1296;SDS011;641;48.492;9.184;2022-09-24T06:20:21;12.40;;;7.20;;
1296;SDS011;641;48.492;9.184;2022-09-24T06:22:47;17.90;;;7.67;;
1296;SDS011;641;48.492;9.184;2022-09-24T06:25:14;10.33;;;5.90;;
1296;SDS011;641;48.492;9.184;2022-09-24T06:27:41;11.90;;;6.60;;
1296;SDS011;641;48.492;9.184;2022-09-24T06:30:06;11.93;;;6.13;;
1296;SDS011;641;48.492;9.184;2022-09-24T06:32:32;11.40;;;6.50;;
1296;SDS011;641;48.492;9.184;2022-09-24T06:34:58;11.93;;;6.77;;
1296;SDS011;641;48.492;9.184;2022-09-24T06:37:23;10.97;;;5.97;;
1296;SDS011;641;48.492;9.184;2022-09-24T06:39:49;12.20;;;6.13;;
1296;SDS011;641;48.492;9.184;2022-09-24T06:42:15;13.53;;;6.17;;
1296;SDS011;641;48.492;9.184;2022-09-24T06:44:40;12.40;;;6.27;;
1296;SDS011;641;48.492;9.184;2022-09-24T06:47:06;14.30;;;6.63;;
1296;SDS011;641;48.492;9.184;2022-09-24T06:49:31;13.53;;;6.63;;
1296;SDS011;641;48.492;9.184;2022-09-24T06:51:57;12.03;;;6.53;;
1296;SDS011;641;48.492;9.184;2022-09-24T06:54:23;10.27;;;5.53;;
1296;SDS011;641;48.492;9.184;2022-09-24T06:56:49;10.83;;;6.10;;
1296;SDS011;641;48.492;9.184;2022-09-24T06:59:16;17.60;;;6.60;;
1296;SDS011;641;48.492;9.184;2022-09-24T07:01:42;13.63;;;6.37;;
1296;SDS011;641;48.492;9.184;2022-09-24T07:04:08;13.83;;;6.70;;
1296;SDS011;641;48.492;9.184;2022-09-24T07:06:33;12.60;;;7.47;;
1296;SDS011;641;48.492;9.184;2022-09-24T07:09:17;14.80;;;6.83;;
1296;SDS011;641;48.492;9.184;2022-09-24T07:11:43;10.83;;;6.33;;
1296;SDS011;641;48.492;9.184;2022-09-24T07:14:10;13.17;;;7.57;;
1296;SDS011;641;48.492;9.184;2022-09-24T07:16:37;13.33;;;7.40;;
1296;SDS011;641;48.492;9.184;2022-09-24T07:19:02;12.97;;;6.90;;
1296;SDS011;641;48.492;9.184;2022-09-24T07:21:28;12.47;;;7.17;;
1296;SDS011;641;48.492;9.184;2022-09-24T07:23:53;11.20;;;7.13;;
1296;SDS011;641;48.492;9.184;2022-09-24T07:26:19;11.63;;;6.83;;
1296;SDS011;641;48.492;9.184;2022-09-24T07:28:44;11.87;;;6.87;;
1296;SDS011;641;48.492;9.184;2022-09-24T07:31:10;10.80;;;6.73;;
1296;SDS011;641;48.492;9.184;2022-09-24T07:33:36;12.90;;;6.70;;
1296;SDS011;641;48.492;9.184;2022-09-24T07:36:04;12.13;;;6.50;;
1296;SDS011;641;48.492;9.184;2022-09-24T07:38:33;12.70;;;7.17;;
1296;SDS011;641;48.492;9.184;2022-09-24T07:41:00;18.87;;;7.07;;
1296;SDS011;641;48.492;9.184;2022-09-24T07:43:27;13.20;;;7.70;;
1296;SDS011;641;48.492;9.184;2022-09-24T07:45:54;14.50;;;8.20;;
1296;SDS011;641;48.492;9.184;2022-09-24T07:48:20;10.67;;;6.33;;
1296;SDS011;641;48.492;9.184;2022-09-24T07:50:46;12.03;;;7.17;;
1296;SDS011;641;48.492;9.184;2022-09-24T07:53:12;13.57;;;7.40;;
1296;SDS011;641;48.492;9.184;2022-09-24T07:55:39;12.60;;;7.00;;
1296;SDS011;641;48.492;9.184;2022-09-24T07:58:05;12.57;;;6.50;;
1296;SDS011;641;48.492;9.184;2022-09-24T08:00:36;13.27;;;7.20;;
1296;SDS011;641;48.492;9.184;2022-09-24T08:03:02;12.87;;;6.70;;
1296;SDS011;641;48.492;9.184;2022-09-24T08:05:28;10.90;;;6.37;;
1296;SDS011;641;48.492;9.184;2022-09-24T08:07:54;11.33;;;5.80;;
1296;SDS011;641;48.492;9.184;2022-09-24T08:10:21;11.90;;;6.53;;
1296;SDS011;641;48.492;9.184;2022-09-24T08:12:47;12.03;;;6.67;;
1296;SDS011;641;48.492;9.184;2022-09-24T08:15:13;9.53;;;5.20;;
1296;SDS011;641;48.492;9.184;2022-09-24T08:17:39;13.10;;;7.00;;
1296;SDS011;641;48.492;9.184;2022-09-24T08:20:05;12.50;;;6.73;;
1296;SDS011;641;48.492;9.184;2022-09-24T08:22:31;12.10;;;6.80;;
1296;SDS011;641;48.492;9.184;2022-09-24T08:24:57;11.97;;;6.83;;
1296;SDS011;641;48.492;9.184;2022-09-24T08:27:23;13.70;;;6.57;;
1296;SDS011;641;48.492;9.184;2022-09-24T08:29:49;14.13;;;7.27;;
1296;SDS011;641;48.492;9.184;2022-09-24T08:32:15;12.50;;;7.40;;
1296;SDS011;641;48.492;9.184;2022-09-24T08:34:42;12.63;;;6.90;;
1296;SDS011;641;48.492;9.184;2022-09-24T08:37:08;17.63;;;8.30;;
1296;SDS011;641;48.492;9.184;2022-09-24T08:39:33;12.10;;;7.00;;
1296;SDS011;641;48.492;9.184;2022-09-24T08:42:03;16.30;;;7.80;;
1296;SDS011;641;48.492;9.184;2022-09-24T08:44:35;14.30;;;7.77;;
1296;SDS011;641;48.492;9.184;2022-09-24T08:50:07;15.53;;;8.30;;
1296;SDS011;641;48.492;9.184;2022-09-24T08:55:30;13.13;;;7.67;;
1296;SDS011;641;48.492;9.184;2022-09-24T09:00:47;16.97;;;8.60;;
1296;SDS011;641;48.492;9.184;2022-09-24T09:06:09;13.83;;;6.37;;
1296;SDS011;641;48.492;9.184;2022-09-24T09:11:14;9.07;;;4.20;;
1296;SDS011;641;48.492;9.184;2022-09-24T09:13:47;8.20;;;3.53;;
1296;SDS011;641;48.492;9.184;2022-09-24T09:16:25;7.80;;;3.47;;
1296;SDS011;641;48.492;9.184;2022-09-24T09:18:55;8.57;;;3.23;;
1296;SDS011;641;48.492;9.184;2022-09-24T09:21:45;8.47;;;3.17;;
1296;SDS011;641;48.492;9.184;2022-09-24T09:24:18;9.40;;;3.40;;
1296;SDS011;641;48.492;9.184;2022-09-24T09:26:49;7.03;;;2.67;;
1296;SDS011;641;48.492;9.184;2022-09-24T09:29:23;10.57;;;2.77;;
1296;SDS011;641;48.492;9.184;2022-09-24T09:32:07;8.90;;;2.73;;
1296;SDS011;641;48.492;9.184;2022-09-24T09:40:02;9.57;;;2.93;;
1296;SDS011;641;48.492;9.184;2022-09-24T09:42:37;10.50;;;3.70;;
1296;SDS011;641;48.492;9.184;2022-09-24T09:47:56;7.40;;;2.90;;
1296;SDS011;641;48.492;9.184;2022-09-24T09:52:52;10.17;;;3.57;;
1296;SDS011;641;48.492;9.184;2022-09-24T09:55:24;7.97;;;3.10;;
1296;SDS011;641;48.492;9.184;2022-09-24T09:57:50;8.87;;;3.33;;
1296;SDS011;641;48.492;9.184;2022-09-24T10:00:26;8.33;;;3.37;;
1296;SDS011;641;48.492;9.184;2022-09-24T10:02:58;10.67;;;3.13;;
1296;SDS011;641;48.492;9.184;2022-09-24T10:05:24;8.57;;;2.70;;
1296;SDS011;641;48.492;9.184;2022-09-24T10:07:53;7.17;;;2.60;;
1296;SDS011;641;48.492;9.184;2022-09-24T10:10:22;8.50;;;3.43;;
1296;SDS011;641;48.492;9.184;2022-09-24T10:13:08;7.67;;;2.60;;
1296;SDS011;641;48.492;9.184;2022-09-24T10:15:47;9.60;;;2.97;;
1296;SDS011;641;48.492;9.184;2022-09-24T10:18:26;7.07;;;2.27;;
1296;SDS011;641;48.492;9.184;2022-09-24T10:20:56;8.40;;;3.00;;
1296;SDS011;641;48.492;9.184;2022-09-24T10:23:45;7.20;;;2.50;;
1296;SDS011;641;48.492;9.184;2022-09-24T10:26:13;8.60;;;2.80;;
1296;SDS011;641;48.492;9.184;2022-09-24T10:28:40;7.40;;;2.70;;
1296;SDS011;641;48.492;9.184;2022-09-24T10:31:30;7.30;;;2.77;;
1296;SDS011;641;48.492;9.184;2022-09-24T10:34:03;7.27;;;2.30;;
1296;SDS011;641;48.492;9.184;2022-09-24T10:36:48;7.20;;;2.10;;
1296;SDS011;641;48.492;9.184;2022-09-24T10:39:19;7.13;;;2.70;;
1296;SDS011;641;48.492;9.184;2022-09-24T10:41:52;10.70;;;2.23;;
1296;SDS011;641;48.492;9.184;2022-09-24T10:44:20;7.73;;;2.83;;
1296;SDS011;641;48.492;9.184;2022-09-24T10:54:55;8.00;;;2.50;;
1296;SDS011;641;48.492;9.184;2022-09-24T11:05:32;6.60;;;2.13;;
1296;SDS011;641;48.492;9.184;2022-09-24T11:10:47;7.37;;;2.50;;
1296;SDS011;641;48.492;9.184;2022-09-24T11:13:24;7.90;;;2.30;;
1296;SDS011;641;48.492;9.184;2022-09-24T11:22:24;7.43;;;2.17;;
1296;SDS011;641;48.492;9.184;2022-09-24T11:39:03;11.90;;;2.57;;
1296;SDS011;641;48.492;9.184;2022-09-24T11:44:52;8.63;;;2.90;;
1296;SDS011;641;48.492;9.184;2022-09-24T11:56:08;9.00;;;2.70;;
1296;SDS011;641;48.492;9.184;2022-09-24T11:58:42;9.90;;;4.30;;
1296;SDS011;641;48.492;9.184;2022-09-24T12:01:15;8.67;;;3.57;;
1296;SDS011;641;48.492;9.184;2022-09-24T12:03:50;7.90;;;2.60;;
1296;SDS011;641;48.492;9.184;2022-09-24T12:06:40;7.50;;;2.80;;
1296;SDS011;641;48.492;9.184;2022-09-24T12:12:05;8.10;;;3.10;;
1296;SDS011;641;48.492;9.184;2022-09-24T12:18:20;8.20;;;3.03;;
1296;SDS011;641;48.492;9.184;2022-09-24T12:20:47;8.70;;;3.70;;
1296;SDS011;641;48.492;9.184;2022-09-24T12:23:22;7.83;;;2.97;;
1296;SDS011;641;48.492;9.184;2022-09-24T12:25:52;9.23;;;3.60;;
1296;SDS011;641;48.492;9.184;2022-09-24T12:28:20;9.60;;;3.67;;
1296;SDS011;641;48.492;9.184;2022-09-24T12:31:14;8.53;;;3.60;;
1296;SDS011;641;48.492;9.184;2022-09-24T12:34:54;13.13;;;4.63;;
1296;SDS011;641;48.492;9.184;2022-09-24T12:37:17;9.40;;;3.90;;
1296;SDS011;641;48.492;9.184;2022-09-24T12:40:02;9.23;;;4.00;;
1296;SDS011;641;48.492;9.184;2022-09-24T12:42:37;9.50;;;4.10;;
1296;SDS011;641;48.492;9.184;2022-09-24T12:45:10;9.57;;;4.97;;
1296;SDS011;641;48.492;9.184;2022-09-24T12:47:59;9.53;;;4.13;;
1296;SDS011;641;48.492;9.184;2022-09-24T12:50:27;9.73;;;4.37;;
1296;SDS011;641;48.492;9.184;2022-09-24T12:52:56;12.07;;;5.50;;
1296;SDS011;641;48.492;9.184;2022-09-24T12:55:23;11.30;;;5.90;;
1296;SDS011;641;48.492;9.184;2022-09-24T12:57:54;9.73;;;5.20;;
1296;SDS011;641;48.492;9.184;2022-09-24T13:00:36;12.07;;;6.67;;
1296;SDS011;641;48.492;9.184;2022-09-24T13:03:04;11.87;;;6.70;;
1296;SDS011;641;48.492;9.184;2022-09-24T13:05:51;11.97;;;7.50;;
1296;SDS011;641;48.492;9.184;2022-09-24T13:13:39;13.83;;;7.50;;
1296;SDS011;641;48.492;9.184;2022-09-24T13:16:17;15.97;;;7.90;;
1296;SDS011;641;48.492;9.184;2022-09-24T13:18:51;12.97;;;7.80;;
1296;SDS011;641;48.492;9.184;2022-09-24T13:21:24;13.77;;;8.40;;
1296;SDS011;641;48.492;9.184;2022-09-24T13:23:52;16.37;;;12.00;;
1296;SDS011;641;48.492;9.184;2022-09-24T13:29:04;20.17;;;10.83;;
1296;SDS011;641;48.492;9.184;2022-09-24T13:31:47;16.10;;;10.07;;
1296;SDS011;641;48.492;9.184;2022-09-24T13:34:20;16.33;;;8.07;;
1296;SDS011;641;48.492;9.184;2022-09-24T13:39:41;10.27;;;6.20;;
1296;SDS011;641;48.492;9.184;2022-09-24T13:44:58;9.80;;;5.80;;
1296;SDS011;641;48.492;9.184;2022-09-24T13:50:16;15.40;;;5.73;;
1296;SDS011;641;48.492;9.184;2022-09-24T13:52:45;13.80;;;6.47;;
1296;SDS011;641;48.492;9.184;2022-09-24T14:00:57;10.70;;;4.97;;
1296;SDS011;641;48.492;9.184;2022-09-24T14:03:31;10.60;;;4.70;;
1296;SDS011;641;48.492;9.184;2022-09-24T14:06:00;9.07;;;4.30;;
1296;SDS011;641;48.492;9.184;2022-09-24T14:08:39;9.57;;;3.77;;
1296;SDS011;641;48.492;9.184;2022-09-24T14:11:22;9.20;;;3.97;;
1296;SDS011;641;48.492;9.184;2022-09-24T14:13:48;9.73;;;3.70;;
1296;SDS011;641;48.492;9.184;2022-09-24T14:19:00;50.63;;;26.67;;
1296;SDS011;641;48.492;9.184;2022-09-24T14:21:30;28.80;;;17.07;;
1296;SDS011;641;48.492;9.184;2022-09-24T14:24:03;11.33;;;4.40;;
1296;SDS011;641;48.492;9.184;2022-09-24T14:29:13;11.37;;;3.93;;
1296;SDS011;641;48.492;9.184;2022-09-24T14:31:50;8.73;;;3.63;;
1296;SDS011;641;48.492;9.184;2022-09-24T14:36:48;9.30;;;4.00;;
1296;SDS011;641;48.492;9.184;2022-09-24T14:39:15;11.03;;;3.97;;
1296;SDS011;641;48.492;9.184;2022-09-24T14:41:41;10.23;;;3.90;;
1296;SDS011;641;48.492;9.184;2022-09-24T14:44:22;8.90;;;3.93;;
1296;SDS011;641;48.492;9.184;2022-09-24T14:46:55;11.43;;;4.20;;
1296;SDS011;641;48.492;9.184;2022-09-24T14:49:23;8.97;;;4.17;;
1296;SDS011;641;48.492;9.184;2022-09-24T14:52:21;10.10;;;5.30;;
1296;SDS011;641;48.492;9.184;2022-09-24T14:55:11;8.37;;;4.40;;
1296;SDS011;641;48.492;9.184;2022-09-24T14:57:40;10.30;;;5.30;;
1296;SDS011;641;48.492;9.184;2022-09-24T15:00:20;9.00;;;4.70;;
1296;SDS011;641;48.492;9.184;2022-09-24T15:02:53;12.90;;;5.33;;
1296;SDS011;641;48.492;9.184;2022-09-24T15:05:23;10.27;;;4.60;;
1296;SDS011;641;48.492;9.184;2022-09-24T15:07:52;15.30;;;5.33;;
1296;SDS011;641;48.492;9.184;2022-09-24T15:10:35;11.97;;;5.27;;
1296;SDS011;641;48.492;9.184;2022-09-24T15:13:13;9.80;;;4.47;;
1296;SDS011;641;48.492;9.184;2022-09-24T15:15:43;12.40;;;5.90;;
1296;SDS011;641;48.492;9.184;2022-09-24T15:18:09;10.77;;;5.80;;
1296;SDS011;641;48.492;9.184;2022-09-24T15:20:36;10.90;;;5.73;;
1296;SDS011;641;48.492;9.184;2022-09-24T15:23:02;11.67;;;6.30;;
1296;SDS011;641;48.492;9.184;2022-09-24T15:25:27;10.80;;;5.50;;
1296;SDS011;641;48.492;9.184;2022-09-24T15:27:53;11.00;;;5.37;;
1296;SDS011;641;48.492;9.184;2022-09-24T15:30:20;10.20;;;5.20;;
1296;SDS011;641;48.492;9.184;2022-09-24T15:32:46;9.80;;;4.60;;
1296;SDS011;641;48.492;9.184;2022-09-24T15:35:14;9.60;;;4.90;;
1296;SDS011;641;48.492;9.184;2022-09-24T15:37:40;9.33;;;4.70;;
1296;SDS011;641;48.492;9.184;2022-09-24T15:42:47;10.57;;;5.20;;
1296;SDS011;641;48.492;9.184;2022-09-24T15:45:14;11.43;;;6.57;;
1296;SDS011;641;48.492;9.184;2022-09-24T15:47:46;10.50;;;5.60;;
1296;SDS011;641;48.492;9.184;2022-09-24T15:50:12;11.20;;;5.13;;
1296;SDS011;641;48.492;9.184;2022-09-24T15:52:54;11.90;;;5.00;;
1296;SDS011;641;48.492;9.184;2022-09-24T15:55:25;12.03;;;5.70;;
1296;SDS011;641;48.492;9.184;2022-09-24T15:57:52;25.00;;;18.20;;
1296;SDS011;641;48.492;9.184;2022-09-24T16:00:20;11.87;;;6.60;;
1296;SDS011;641;48.492;9.184;2022-09-24T16:02:50;9.90;;;4.77;;
1296;SDS011;641;48.492;9.184;2022-09-24T16:05:18;9.93;;;5.20;;
1296;SDS011;641;48.492;9.184;2022-09-24T16:07:44;11.40;;;4.93;;
1296;SDS011;641;48.492;9.184;2022-09-24T16:10:11;14.03;;;7.63;;
1296;SDS011;641;48.492;9.184;2022-09-24T16:12:38;13.60;;;6.30;;
1296;SDS011;641;48.492;9.184;2022-09-24T16:15:04;10.10;;;5.63;;
1296;SDS011;641;48.492;9.184;2022-09-24T16:17:30;11.73;;;6.53;;
1296;SDS011;641;48.492;9.184;2022-09-24T16:19:57;14.60;;;6.50;;
1296;SDS011;641;48.492;9.184;2022-09-24T16:22:23;12.03;;;6.53;;
1296;SDS011;641;48.492;9.184;2022-09-24T16:24:49;10.63;;;5.80;;
1296;SDS011;641;48.492;9.184;2022-09-24T16:27:15;13.40;;;7.10;;
1296;SDS011;641;48.492;9.184;2022-09-24T16:29:40;11.00;;;6.50;;
1296;SDS011;641;48.492;9.184;2022-09-24T16:32:06;13.00;;;6.90;;
1296;SDS011;641;48.492;9.184;2022-09-24T16:34:32;12.03;;;7.50;;
1296;SDS011;641;48.492;9.184;2022-09-24T16:36:58;11.30;;;6.77;;
1296;SDS011;641;48.492;9.184;2022-09-24T16:39:24;12.37;;;7.43;;
1296;SDS011;641;48.492;9.184;2022-09-24T16:41:50;13.60;;;7.30;;
1296;SDS011;641;48.492;9.184;2022-09-24T16:44:16;12.13;;;7.30;;
1296;SDS011;641;48.492;9.184;2022-09-24T16:46:42;13.40;;;6.70;;
1296;SDS011;641;48.492;9.184;2022-09-24T16:49:08;11.63;;;7.20;;
1296;SDS011;641;48.492;9.184;2022-09-24T16:51:33;10.73;;;6.10;;
1296;SDS011;641;48.492;9.184;2022-09-24T16:53:59;11.90;;;7.03;;
1296;SDS011;641;48.492;9.184;2022-09-24T16:56:25;11.37;;;6.47;;
1296;SDS011;641;48.492;9.184;2022-09-24T16:58:50;11.87;;;6.80;;
1296;SDS011;641;48.492;9.184;2022-09-24T17:01:17;13.00;;;6.77;;
1296;SDS011;641;48.492;9.184;2022-09-24T17:03:49;14.90;;;8.30;;
1296;SDS011;641;48.492;9.184;2022-09-24T17:06:16;18.10;;;7.37;;
1296;SDS011;641;48.492;9.184;2022-09-24T17:08:46;15.00;;;7.63;;
1296;SDS011;641;48.492;9.184;2022-09-24T17:11:30;12.90;;;7.83;;
1296;SDS011;641;48.492;9.184;2022-09-24T17:13:56;14.10;;;8.07;;
1296;SDS011;641;48.492;9.184;2022-09-24T17:16:22;14.27;;;7.70;;
1296;SDS011;641;48.492;9.184;2022-09-24T17:18:48;12.53;;;8.03;;
1296;SDS011;641;48.492;9.184;2022-09-24T17:21:14;15.23;;;7.10;;
1296;SDS011;641;48.492;9.184;2022-09-24T17:23:42;12.60;;;7.07;;
1296;SDS011;641;48.492;9.184;2022-09-24T17:26:12;11.30;;;6.47;;
1296;SDS011;641;48.492;9.184;2022-09-24T17:28:40;13.67;;;7.30;;
1296;SDS011;641;48.492;9.184;2022-09-24T17:31:07;14.27;;;7.27;;
1296;SDS011;641;48.492;9.184;2022-09-24T17:33:35;13.50;;;8.10;;
1296;SDS011;641;48.492;9.184;2022-09-24T17:36:05;12.00;;;6.17;;
1296;SDS011;641;48.492;9.184;2022-09-24T17:38:31;12.03;;;7.50;;
1296;SDS011;641;48.492;9.184;2022-09-24T17:41:10;15.87;;;6.97;;
1296;SDS011;641;48.492;9.184;2022-09-24T17:43:37;15.03;;;6.97;;
1296;SDS011;641;48.492;9.184;2022-09-24T17:46:13;13.07;;;7.23;;
1296;SDS011;641;48.492;9.184;2022-09-24T17:48:42;13.67;;;8.03;;
1296;SDS011;641;48.492;9.184;2022-09-24T17:51:11;13.73;;;8.30;;